sensor_id;sensor_type;location;lat;lon;timestamp;P1;durP1;ratioP1;P2;durP2;ratioP2
72201;SDS011;60105;54.956;73.412;2022-09-29T00:00:41;20.35;;;10.57;;
72201;SDS011;60105;54.956;73.412;2022-09-29T00:03:07;16.77;;;10.38;;
72201;SDS011;60105;54.956;73.412;2022-09-29T00:05:39;16.67;;;9.07;;
72201;SDS011;60105;54.956;73.412;2022-09-29T00:08:10;13.80;;;9.27;;
72201;SDS011;60105;54.956;73.412;2022-09-29T00:10:38;14.77;;;9.23;;
72201;SDS011;60105;54.956;73.412;2022-09-29T00:13:05;15.38;;;7.63;;
72201;SDS011;60105;54.956;73.412;2022-09-29T00:15:31;11.90;;;7.60;;
72201;SDS011;60105;54.956;73.412;2022-09-29T00:17:57;11.20;;;6.97;;
72201;SDS011;60105;54.956;73.412;2022-09-29T00:20:34;10.88;;;6.32;;
72201;SDS011;60105;54.956;73.412;2022-09-29T00:23:01;10.80;;;6.20;;
72201;SDS011;60105;54.956;73.412;2022-09-29T00:25:27;9.35;;;6.47;;
72201;SDS011;60105;54.956;73.412;2022-09-29T00:27:53;7.28;;;5.05;;
72201;SDS011;60105;54.956;73.412;2022-09-29T00:30:25;7.23;;;5.17;;
72201;SDS011;60105;54.956;73.412;2022-09-29T00:32:51;7.82;;;5.32;;
72201;SDS011;60105;54.956;73.412;2022-09-29T00:35:17;7.10;;;5.10;;
72201;SDS011;60105;54.956;73.412;2022-09-29T00:37:43;8.32;;;5.38;;
72201;SDS011;60105;54.956;73.412;2022-09-29T00:40:20;7.47;;;5.18;;
72201;SDS011;60105;54.956;73.412;2022-09-29T00:42:46;6.80;;;5.13;;
72201;SDS011;60105;54.956;73.412;2022-09-29T00:45:19;8.73;;;5.55;;
72201;SDS011;60105;54.956;73.412;2022-09-29T00:47:49;9.55;;;6.15;;
72201;SDS011;60105;54.956;73.412;2022-09-29T00:50:43;6.50;;;5.30;;
72201;SDS011;60105;54.956;73.412;2022-09-29T00:53:14;7.65;;;5.55;;
72201;SDS011;60105;54.956;73.412;2022-09-29T00:55:59;7.63;;;5.20;;
72201;SDS011;60105;54.956;73.412;2022-09-29T01:00:56;7.65;;;5.35;;
72201;SDS011;60105;54.956;73.412;2022-09-29T01:03:22;9.27;;;5.80;;
72201;SDS011;60105;54.956;73.412;2022-09-29T01:05:54;7.63;;;5.53;;
72201;SDS011;60105;54.956;73.412;2022-09-29T01:11:32;7.47;;;5.03;;
72201;SDS011;60105;54.956;73.412;2022-09-29T01:13:59;6.20;;;4.82;;
72201;SDS011;60105;54.956;73.412;2022-09-29T01:16:31;6.95;;;4.28;;
72201;SDS011;60105;54.956;73.412;2022-09-29T01:19:02;10.35;;;5.47;;
72201;SDS011;60105;54.956;73.412;2022-09-29T01:21:35;7.20;;;5.17;;
72201;SDS011;60105;54.956;73.412;2022-09-29T01:24:31;8.55;;;5.68;;
72201;SDS011;60105;54.956;73.412;2022-09-29T01:30:13;8.43;;;5.32;;
72201;SDS011;60105;54.956;73.412;2022-09-29T01:32:56;8.32;;;5.22;;
72201;SDS011;60105;54.956;73.412;2022-09-29T01:44:20;10.30;;;5.10;;
72201;SDS011;60105;54.956;73.412;2022-09-29T01:46:57;11.32;;;5.82;;
72201;SDS011;60105;54.956;73.412;2022-09-29T01:49:29;10.23;;;5.97;;
72201;SDS011;60105;54.956;73.412;2022-09-29T01:52:10;8.35;;;5.50;;
72201;SDS011;60105;54.956;73.412;2022-09-29T01:55:01;10.23;;;6.20;;
72201;SDS011;60105;54.956;73.412;2022-09-29T01:57:30;9.13;;;5.40;;
72201;SDS011;60105;54.956;73.412;2022-09-29T02:00:23;8.95;;;6.07;;
72201;SDS011;60105;54.956;73.412;2022-09-29T02:02:57;9.53;;;5.73;;
72201;SDS011;60105;54.956;73.412;2022-09-29T02:08:35;10.93;;;6.75;;
72201;SDS011;60105;54.956;73.412;2022-09-29T02:11:12;9.32;;;5.32;;
72201;SDS011;60105;54.956;73.412;2022-09-29T02:16:17;11.40;;;6.63;;
72201;SDS011;60105;54.956;73.412;2022-09-29T02:21:18;9.77;;;6.38;;
72201;SDS011;60105;54.956;73.412;2022-09-29T02:23:50;10.88;;;7.07;;
72201;SDS011;60105;54.956;73.412;2022-09-29T02:26:17;15.65;;;6.97;;
72201;SDS011;60105;54.956;73.412;2022-09-29T02:28:45;11.87;;;7.23;;
72201;SDS011;60105;54.956;73.412;2022-09-29T02:31:12;10.95;;;7.40;;
72201;SDS011;60105;54.956;73.412;2022-09-29T02:33:39;11.10;;;7.38;;
72201;SDS011;60105;54.956;73.412;2022-09-29T02:41:52;17.03;;;7.27;;
72201;SDS011;60105;54.956;73.412;2022-09-29T02:44:27;10.38;;;6.68;;
72201;SDS011;60105;54.956;73.412;2022-09-29T02:52:12;11.55;;;6.57;;
72201;SDS011;60105;54.956;73.412;2022-09-29T02:57:51;10.05;;;6.65;;
72201;SDS011;60105;54.956;73.412;2022-09-29T03:00:22;10.90;;;6.80;;
72201;SDS011;60105;54.956;73.412;2022-09-29T03:02:48;11.65;;;6.70;;
72201;SDS011;60105;54.956;73.412;2022-09-29T03:05:18;10.27;;;6.30;;
72201;SDS011;60105;54.956;73.412;2022-09-29T03:07:47;10.43;;;6.87;;
72201;SDS011;60105;54.956;73.412;2022-09-29T03:10:14;12.30;;;6.55;;
72201;SDS011;60105;54.956;73.412;2022-09-29T03:12:42;10.38;;;6.25;;
72201;SDS011;60105;54.956;73.412;2022-09-29T03:15:09;7.18;;;5.45;;
72201;SDS011;60105;54.956;73.412;2022-09-29T03:17:37;12.25;;;6.28;;
72201;SDS011;60105;54.956;73.412;2022-09-29T03:20:05;10.07;;;6.40;;
72201;SDS011;60105;54.956;73.412;2022-09-29T03:22:32;13.98;;;6.78;;
72201;SDS011;60105;54.956;73.412;2022-09-29T03:24:58;9.20;;;6.07;;
72201;SDS011;60105;54.956;73.412;2022-09-29T03:27:24;8.43;;;5.88;;
72201;SDS011;60105;54.956;73.412;2022-09-29T03:29:50;11.30;;;5.80;;
72201;SDS011;60105;54.956;73.412;2022-09-29T03:32:16;9.23;;;6.13;;
72201;SDS011;60105;54.956;73.412;2022-09-29T03:34:48;14.88;;;6.55;;
72201;SDS011;60105;54.956;73.412;2022-09-29T03:37:18;12.13;;;6.70;;
72201;SDS011;60105;54.956;73.412;2022-09-29T03:39:45;8.82;;;6.47;;
72201;SDS011;60105;54.956;73.412;2022-09-29T03:42:21;9.57;;;7.05;;
72201;SDS011;60105;54.956;73.412;2022-09-29T03:44:48;9.90;;;6.30;;
72201;SDS011;60105;54.956;73.412;2022-09-29T03:47:14;9.18;;;5.88;;
72201;SDS011;60105;54.956;73.412;2022-09-29T03:49:41;12.98;;;6.30;;
72201;SDS011;60105;54.956;73.412;2022-09-29T03:52:08;11.50;;;6.15;;
72201;SDS011;60105;54.956;73.412;2022-09-29T03:54:39;10.77;;;6.20;;
72201;SDS011;60105;54.956;73.412;2022-09-29T03:57:05;11.53;;;5.97;;
72201;SDS011;60105;54.956;73.412;2022-09-29T03:59:31;7.80;;;5.75;;
72201;SDS011;60105;54.956;73.412;2022-09-29T04:01:57;7.97;;;5.90;;
72201;SDS011;60105;54.956;73.412;2022-09-29T04:04:23;8.00;;;6.00;;
72201;SDS011;60105;54.956;73.412;2022-09-29T04:06:59;9.40;;;6.10;;
72201;SDS011;60105;54.956;73.412;2022-09-29T04:09:25;9.00;;;6.17;;
72201;SDS011;60105;54.956;73.412;2022-09-29T04:11:52;10.52;;;5.95;;
72201;SDS011;60105;54.956;73.412;2022-09-29T04:14:18;9.90;;;6.55;;
72201;SDS011;60105;54.956;73.412;2022-09-29T04:16:44;9.60;;;6.50;;
72201;SDS011;60105;54.956;73.412;2022-09-29T04:19:11;12.00;;;6.47;;
72201;SDS011;60105;54.956;73.412;2022-09-29T04:21:47;7.73;;;5.73;;
72201;SDS011;60105;54.956;73.412;2022-09-29T04:24:13;9.80;;;6.38;;
72201;SDS011;60105;54.956;73.412;2022-09-29T04:26:39;9.90;;;6.05;;
72201;SDS011;60105;54.956;73.412;2022-09-29T04:29:05;9.40;;;6.28;;
72201;SDS011;60105;54.956;73.412;2022-09-29T04:31:43;11.07;;;6.25;;
72201;SDS011;60105;54.956;73.412;2022-09-29T04:34:09;9.97;;;5.30;;
72201;SDS011;60105;54.956;73.412;2022-09-29T04:36:35;7.60;;;5.47;;
72201;SDS011;60105;54.956;73.412;2022-09-29T04:39:06;8.70;;;5.93;;
72201;SDS011;60105;54.956;73.412;2022-09-29T04:41:32;8.45;;;5.00;;
72201;SDS011;60105;54.956;73.412;2022-09-29T04:44:00;7.28;;;5.00;;
72201;SDS011;60105;54.956;73.412;2022-09-29T04:46:27;10.20;;;5.87;;
72201;SDS011;60105;54.956;73.412;2022-09-29T04:48:53;9.45;;;5.40;;
72201;SDS011;60105;54.956;73.412;2022-09-29T04:51:19;7.55;;;5.38;;
72201;SDS011;60105;54.956;73.412;2022-09-29T04:53:45;9.20;;;5.03;;
72201;SDS011;60105;54.956;73.412;2022-09-29T04:56:11;6.60;;;5.13;;
72201;SDS011;60105;54.956;73.412;2022-09-29T04:58:37;8.20;;;5.70;;
72201;SDS011;60105;54.956;73.412;2022-09-29T05:01:07;7.90;;;4.93;;
72201;SDS011;60105;54.956;73.412;2022-09-29T05:03:35;9.60;;;5.50;;
72201;SDS011;60105;54.956;73.412;2022-09-29T05:06:01;15.73;;;5.68;;
72201;SDS011;60105;54.956;73.412;2022-09-29T05:08:28;12.38;;;5.53;;
72201;SDS011;60105;54.956;73.412;2022-09-29T05:10:54;16.27;;;7.37;;
72201;SDS011;60105;54.956;73.412;2022-09-29T05:13:20;20.17;;;7.20;;
72201;SDS011;60105;54.956;73.412;2022-09-29T05:15:55;18.40;;;7.53;;
72201;SDS011;60105;54.956;73.412;2022-09-29T05:18:22;14.05;;;7.95;;
72201;SDS011;60105;54.956;73.412;2022-09-29T05:20:54;11.45;;;6.93;;
72201;SDS011;60105;54.956;73.412;2022-09-29T05:23:21;18.17;;;6.70;;
72201;SDS011;60105;54.956;73.412;2022-09-29T05:25:47;13.90;;;7.18;;
72201;SDS011;60105;54.956;73.412;2022-09-29T05:28:14;15.13;;;8.02;;
72201;SDS011;60105;54.956;73.412;2022-09-29T05:30:40;12.50;;;7.30;;
72201;SDS011;60105;54.956;73.412;2022-09-29T05:33:07;10.18;;;7.07;;
72201;SDS011;60105;54.956;73.412;2022-09-29T05:35:33;11.57;;;6.47;;
72201;SDS011;60105;54.956;73.412;2022-09-29T05:38:00;13.55;;;7.18;;
72201;SDS011;60105;54.956;73.412;2022-09-29T05:40:26;11.70;;;6.93;;
72201;SDS011;60105;54.956;73.412;2022-09-29T05:42:52;14.35;;;7.80;;
72201;SDS011;60105;54.956;73.412;2022-09-29T05:45:18;16.50;;;8.05;;
72201;SDS011;60105;54.956;73.412;2022-09-29T05:47:44;23.37;;;7.90;;
72201;SDS011;60105;54.956;73.412;2022-09-29T05:50:11;18.48;;;7.35;;
72201;SDS011;60105;54.956;73.412;2022-09-29T05:52:38;13.90;;;5.82;;
72201;SDS011;60105;54.956;73.412;2022-09-29T05:55:05;7.90;;;5.53;;
72201;SDS011;60105;54.956;73.412;2022-09-29T05:57:34;12.73;;;5.63;;
72201;SDS011;60105;54.956;73.412;2022-09-29T06:00:01;17.40;;;5.90;;
72201;SDS011;60105;54.956;73.412;2022-09-29T06:02:37;15.32;;;6.45;;
72201;SDS011;60105;54.956;73.412;2022-09-29T06:05:03;10.45;;;6.82;;
72201;SDS011;60105;54.956;73.412;2022-09-29T06:07:30;11.50;;;5.97;;
72201;SDS011;60105;54.956;73.412;2022-09-29T06:09:56;18.38;;;7.13;;
72201;SDS011;60105;54.956;73.412;2022-09-29T06:12:22;10.20;;;6.70;;
72201;SDS011;60105;54.956;73.412;2022-09-29T06:14:48;10.52;;;6.53;;
72201;SDS011;60105;54.956;73.412;2022-09-29T06:17:15;14.13;;;6.93;;
72201;SDS011;60105;54.956;73.412;2022-09-29T06:19:51;19.40;;;7.97;;
72201;SDS011;60105;54.956;73.412;2022-09-29T06:22:18;17.33;;;9.68;;
72201;SDS011;60105;54.956;73.412;2022-09-29T06:24:44;19.03;;;10.23;;
72201;SDS011;60105;54.956;73.412;2022-09-29T06:27:10;22.77;;;11.48;;
72201;SDS011;60105;54.956;73.412;2022-09-29T06:29:36;26.98;;;13.25;;
72201;SDS011;60105;54.956;73.412;2022-09-29T06:32:05;32.67;;;14.95;;
72201;SDS011;60105;54.956;73.412;2022-09-29T06:34:31;29.02;;;16.50;;
72201;SDS011;60105;54.956;73.412;2022-09-29T06:36:57;35.37;;;16.97;;
72201;SDS011;60105;54.956;73.412;2022-09-29T06:39:41;38.58;;;19.38;;
72201;SDS011;60105;54.956;73.412;2022-09-29T06:42:08;43.80;;;20.60;;
72201;SDS011;60105;54.956;73.412;2022-09-29T06:44:34;40.83;;;20.63;;
72201;SDS011;60105;54.956;73.412;2022-09-29T06:47:00;42.50;;;19.10;;
72201;SDS011;60105;54.956;73.412;2022-09-29T06:49:26;43.57;;;19.37;;
72201;SDS011;60105;54.956;73.412;2022-09-29T06:51:53;44.33;;;18.67;;
72201;SDS011;60105;54.956;73.412;2022-09-29T06:54:20;41.17;;;18.90;;
72201;SDS011;60105;54.956;73.412;2022-09-29T06:56:52;28.60;;;14.63;;
72201;SDS011;60105;54.956;73.412;2022-09-29T06:59:19;26.35;;;14.60;;
72201;SDS011;60105;54.956;73.412;2022-09-29T07:01:45;24.90;;;13.83;;
72201;SDS011;60105;54.956;73.412;2022-09-29T07:04:15;20.52;;;11.30;;
72201;SDS011;60105;54.956;73.412;2022-09-29T07:06:42;25.40;;;12.35;;
72201;SDS011;60105;54.956;73.412;2022-09-29T07:09:09;20.30;;;11.63;;
72201;SDS011;60105;54.956;73.412;2022-09-29T07:11:41;19.27;;;11.73;;
72201;SDS011;60105;54.956;73.412;2022-09-29T07:14:12;14.70;;;9.00;;
72201;SDS011;60105;54.956;73.412;2022-09-29T07:16:39;15.07;;;9.65;;
72201;SDS011;60105;54.956;73.412;2022-09-29T07:19:05;14.15;;;9.02;;
72201;SDS011;60105;54.956;73.412;2022-09-29T07:21:32;15.27;;;10.15;;
72201;SDS011;60105;54.956;73.412;2022-09-29T07:23:58;20.05;;;9.55;;
72201;SDS011;60105;54.956;73.412;2022-09-29T07:26:29;20.90;;;9.53;;
72201;SDS011;60105;54.956;73.412;2022-09-29T07:29:05;30.00;;;10.63;;
72201;SDS011;60105;54.956;73.412;2022-09-29T07:31:32;22.38;;;11.40;;
72201;SDS011;60105;54.956;73.412;2022-09-29T07:33:58;28.90;;;10.63;;
72201;SDS011;60105;54.956;73.412;2022-09-29T07:36:24;16.90;;;11.02;;
72201;SDS011;60105;54.956;73.412;2022-09-29T07:38:51;19.07;;;11.33;;
72201;SDS011;60105;54.956;73.412;2022-09-29T07:41:18;19.85;;;10.07;;
72201;SDS011;60105;54.956;73.412;2022-09-29T07:43:46;11.93;;;6.82;;
72201;SDS011;60105;54.956;73.412;2022-09-29T07:46:12;8.30;;;5.22;;
72201;SDS011;60105;54.956;73.412;2022-09-29T07:48:38;11.98;;;6.50;;
72201;SDS011;60105;54.956;73.412;2022-09-29T07:51:06;8.70;;;5.70;;
72201;SDS011;60105;54.956;73.412;2022-09-29T07:53:35;10.70;;;5.75;;
72201;SDS011;60105;54.956;73.412;2022-09-29T07:58:39;8.82;;;6.13;;
72201;SDS011;60105;54.956;73.412;2022-09-29T08:01:07;11.55;;;5.85;;
72201;SDS011;60105;54.956;73.412;2022-09-29T08:03:44;12.97;;;6.97;;
72201;SDS011;60105;54.956;73.412;2022-09-29T08:06:15;11.23;;;5.85;;
72201;SDS011;60105;54.956;73.412;2022-09-29T08:08:41;14.90;;;7.18;;
72201;SDS011;60105;54.956;73.412;2022-09-29T08:11:08;13.38;;;7.45;;
72201;SDS011;60105;54.956;73.412;2022-09-29T08:13:36;10.40;;;6.30;;
72201;SDS011;60105;54.956;73.412;2022-09-29T08:16:04;12.77;;;6.33;;
72201;SDS011;60105;54.956;73.412;2022-09-29T08:18:32;9.10;;;6.22;;
72201;SDS011;60105;54.956;73.412;2022-09-29T08:21:00;13.82;;;6.22;;
72201;SDS011;60105;54.956;73.412;2022-09-29T08:23:27;11.13;;;6.53;;
72201;SDS011;60105;54.956;73.412;2022-09-29T08:26:05;16.42;;;6.70;;
72201;SDS011;60105;54.956;73.412;2022-09-29T08:28:43;13.77;;;6.70;;
72201;SDS011;60105;54.956;73.412;2022-09-29T08:31:13;13.02;;;6.85;;
72201;SDS011;60105;54.956;73.412;2022-09-29T08:33:48;18.80;;;7.80;;
72201;SDS011;60105;54.956;73.412;2022-09-29T08:36:16;22.67;;;9.13;;
72201;SDS011;60105;54.956;73.412;2022-09-29T08:38:44;19.25;;;7.82;;
72201;SDS011;60105;54.956;73.412;2022-09-29T08:41:37;28.23;;;8.70;;
72201;SDS011;60105;54.956;73.412;2022-09-29T08:44:39;17.20;;;8.80;;
72201;SDS011;60105;54.956;73.412;2022-09-29T08:47:20;33.17;;;8.88;;
72201;SDS011;60105;54.956;73.412;2022-09-29T08:49:55;22.58;;;9.40;;
72201;SDS011;60105;54.956;73.412;2022-09-29T08:52:29;18.35;;;8.88;;
72201;SDS011;60105;54.956;73.412;2022-09-29T08:58:12;10.85;;;6.35;;
72201;SDS011;60105;54.956;73.412;2022-09-29T09:00:51;12.20;;;6.07;;
72201;SDS011;60105;54.956;73.412;2022-09-29T09:12:00;15.45;;;6.90;;
72201;SDS011;60105;54.956;73.412;2022-09-29T09:25:46;12.32;;;6.35;;
72201;SDS011;60105;54.956;73.412;2022-09-29T09:28:21;16.65;;;6.30;;
72201;SDS011;60105;54.956;73.412;2022-09-29T09:30:52;11.23;;;6.93;;
72201;SDS011;60105;54.956;73.412;2022-09-29T09:36:16;11.50;;;6.33;;
72201;SDS011;60105;54.956;73.412;2022-09-29T09:41:19;11.00;;;5.47;;
72201;SDS011;60105;54.956;73.412;2022-09-29T09:43:49;14.23;;;5.55;;
72201;SDS011;60105;54.956;73.412;2022-09-29T09:46:37;9.50;;;5.68;;
72201;SDS011;60105;54.956;73.412;2022-09-29T09:54:27;8.85;;;5.93;;
72201;SDS011;60105;54.956;73.412;2022-09-29T09:56:59;10.32;;;6.10;;
72201;SDS011;60105;54.956;73.412;2022-09-29T09:59:56;10.23;;;6.90;;
72201;SDS011;60105;54.956;73.412;2022-09-29T10:02:45;12.53;;;6.53;;
72201;SDS011;60105;54.956;73.412;2022-09-29T10:05:19;12.95;;;5.72;;
72201;SDS011;60105;54.956;73.412;2022-09-29T10:07:51;12.63;;;6.40;;
72201;SDS011;60105;54.956;73.412;2022-09-29T10:10:24;15.65;;;6.55;;
72201;SDS011;60105;54.956;73.412;2022-09-29T10:15:41;12.67;;;6.80;;
72201;SDS011;60105;54.956;73.412;2022-09-29T10:20:53;9.65;;;5.82;;
72201;SDS011;60105;54.956;73.412;2022-09-29T10:28:22;9.20;;;6.13;;
72201;SDS011;60105;54.956;73.412;2022-09-29T10:30:49;9.48;;;5.50;;
72201;SDS011;60105;54.956;73.412;2022-09-29T10:33:19;13.68;;;5.80;;
72201;SDS011;60105;54.956;73.412;2022-09-29T10:35:47;8.52;;;6.07;;
72201;SDS011;60105;54.956;73.412;2022-09-29T10:38:23;11.77;;;5.90;;
72201;SDS011;60105;54.956;73.412;2022-09-29T10:40:55;19.95;;;7.20;;
72201;SDS011;60105;54.956;73.412;2022-09-29T10:46:04;10.35;;;6.35;;
72201;SDS011;60105;54.956;73.412;2022-09-29T10:49:11;12.45;;;5.80;;
72201;SDS011;60105;54.956;73.412;2022-09-29T10:51:39;13.57;;;5.78;;
72201;SDS011;60105;54.956;73.412;2022-09-29T10:54:13;9.05;;;5.80;;
72201;SDS011;60105;54.956;73.412;2022-09-29T10:56:47;15.05;;;6.28;;
72201;SDS011;60105;54.956;73.412;2022-09-29T10:59:14;13.70;;;6.97;;
72201;SDS011;60105;54.956;73.412;2022-09-29T11:01:49;13.50;;;6.50;;
72201;SDS011;60105;54.956;73.412;2022-09-29T11:04:30;18.52;;;8.02;;
72201;SDS011;60105;54.956;73.412;2022-09-29T11:07:07;10.83;;;6.27;;
72201;SDS011;60105;54.956;73.412;2022-09-29T11:09:39;12.25;;;6.28;;
72201;SDS011;60105;54.956;73.412;2022-09-29T11:14:59;9.80;;;5.53;;
72201;SDS011;60105;54.956;73.412;2022-09-29T11:17:27;14.75;;;5.82;;
72201;SDS011;60105;54.956;73.412;2022-09-29T11:20:01;10.77;;;5.10;;
72201;SDS011;60105;54.956;73.412;2022-09-29T11:22:48;10.38;;;5.30;;
72201;SDS011;60105;54.956;73.412;2022-09-29T11:25:45;8.23;;;5.88;;
72201;SDS011;60105;54.956;73.412;2022-09-29T11:45:09;11.52;;;6.10;;
72201;SDS011;60105;54.956;73.412;2022-09-29T11:47:53;9.97;;;6.30;;
72201;SDS011;60105;54.956;73.412;2022-09-29T11:58:45;12.77;;;7.78;;
72201;SDS011;60105;54.956;73.412;2022-09-29T12:01:24;18.77;;;8.57;;
72201;SDS011;60105;54.956;73.412;2022-09-29T12:18:21;17.90;;;8.45;;
72201;SDS011;60105;54.956;73.412;2022-09-29T12:20:52;14.52;;;6.85;;
72201;SDS011;60105;54.956;73.412;2022-09-29T12:23:21;11.68;;;7.57;;
72201;SDS011;60105;54.956;73.412;2022-09-29T12:25:52;12.18;;;7.10;;
72201;SDS011;60105;54.956;73.412;2022-09-29T12:28:27;13.32;;;8.13;;
72201;SDS011;60105;54.956;73.412;2022-09-29T12:31:19;12.30;;;7.00;;
72201;SDS011;60105;54.956;73.412;2022-09-29T12:33:51;14.10;;;7.00;;
72201;SDS011;60105;54.956;73.412;2022-09-29T12:36:26;17.85;;;7.20;;
72201;SDS011;60105;54.956;73.412;2022-09-29T12:42:01;18.63;;;6.77;;
72201;SDS011;60105;54.956;73.412;2022-09-29T12:44:45;13.30;;;6.70;;
72201;SDS011;60105;54.956;73.412;2022-09-29T12:47:38;11.80;;;6.38;;
72201;SDS011;60105;54.956;73.412;2022-09-29T12:52:40;9.73;;;7.32;;
72201;SDS011;60105;54.956;73.412;2022-09-29T12:55:17;14.00;;;7.70;;
72201;SDS011;60105;54.956;73.412;2022-09-29T12:57:50;17.77;;;7.55;;
72201;SDS011;60105;54.956;73.412;2022-09-29T13:00:21;15.70;;;6.68;;
72201;SDS011;60105;54.956;73.412;2022-09-29T13:03:00;13.48;;;7.60;;
72201;SDS011;60105;54.956;73.412;2022-09-29T13:11:43;19.20;;;7.63;;
72201;SDS011;60105;54.956;73.412;2022-09-29T13:25:19;11.90;;;7.13;;
72201;SDS011;60105;54.956;73.412;2022-09-29T13:27:52;11.80;;;7.63;;
72201;SDS011;60105;54.956;73.412;2022-09-29T13:30:22;13.38;;;7.60;;
72201;SDS011;60105;54.956;73.412;2022-09-29T13:35:47;9.63;;;6.30;;
72201;SDS011;60105;54.956;73.412;2022-09-29T13:38:36;10.77;;;6.07;;
72201;SDS011;60105;54.956;73.412;2022-09-29T13:51:49;8.82;;;5.35;;
72201;SDS011;60105;54.956;73.412;2022-09-29T13:59:30;11.13;;;6.35;;
72201;SDS011;60105;54.956;73.412;2022-09-29T14:02:16;11.57;;;5.50;;
72201;SDS011;60105;54.956;73.412;2022-09-29T14:04:52;8.98;;;6.28;;
72201;SDS011;60105;54.956;73.412;2022-09-29T14:07:43;9.48;;;6.53;;
72201;SDS011;60105;54.956;73.412;2022-09-29T14:12:46;10.88;;;6.30;;
72201;SDS011;60105;54.956;73.412;2022-09-29T14:15:17;11.17;;;6.90;;
72201;SDS011;60105;54.956;73.412;2022-09-29T14:17:46;12.93;;;7.40;;
72201;SDS011;60105;54.956;73.412;2022-09-29T14:20:21;10.68;;;5.88;;
72201;SDS011;60105;54.956;73.412;2022-09-29T14:23:06;11.93;;;6.78;;
72201;SDS011;60105;54.956;73.412;2022-09-29T14:25:47;11.32;;;6.80;;
72201;SDS011;60105;54.956;73.412;2022-09-29T14:28:19;12.93;;;7.00;;
72201;SDS011;60105;54.956;73.412;2022-09-29T14:30:51;11.15;;;7.05;;
72201;SDS011;60105;54.956;73.412;2022-09-29T14:33:21;10.30;;;6.97;;
72201;SDS011;60105;54.956;73.412;2022-09-29T14:36:10;10.45;;;6.28;;
72201;SDS011;60105;54.956;73.412;2022-09-29T14:38:54;13.30;;;6.90;;
72201;SDS011;60105;54.956;73.412;2022-09-29T14:41:26;12.27;;;6.30;;
72201;SDS011;60105;54.956;73.412;2022-09-29T14:58:36;10.63;;;5.90;;
72201;SDS011;60105;54.956;73.412;2022-09-29T15:04:05;10.52;;;6.70;;
72201;SDS011;60105;54.956;73.412;2022-09-29T15:06:44;9.23;;;6.35;;
72201;SDS011;60105;54.956;73.412;2022-09-29T15:11:56;9.85;;;6.30;;
72201;SDS011;60105;54.956;73.412;2022-09-29T15:14:31;9.80;;;5.60;;
72201;SDS011;60105;54.956;73.412;2022-09-29T15:17:17;13.10;;;6.55;;
72201;SDS011;60105;54.956;73.412;2022-09-29T15:25:18;11.30;;;6.22;;
72201;SDS011;60105;54.956;73.412;2022-09-29T15:27:58;10.30;;;5.90;;
72201;SDS011;60105;54.956;73.412;2022-09-29T15:30:25;9.50;;;6.20;;
72201;SDS011;60105;54.956;73.412;2022-09-29T15:32:54;9.68;;;5.43;;
72201;SDS011;60105;54.956;73.412;2022-09-29T15:35:52;11.77;;;6.60;;
72201;SDS011;60105;54.956;73.412;2022-09-29T15:40:53;9.38;;;6.25;;
72201;SDS011;60105;54.956;73.412;2022-09-29T15:43:22;9.07;;;5.75;;
72201;SDS011;60105;54.956;73.412;2022-09-29T15:45:53;10.90;;;5.78;;
72201;SDS011;60105;54.956;73.412;2022-09-29T15:48:24;11.00;;;5.37;;
72201;SDS011;60105;54.956;73.412;2022-09-29T15:50:55;8.75;;;5.05;;
72201;SDS011;60105;54.956;73.412;2022-09-29T15:53:24;9.05;;;5.38;;
72201;SDS011;60105;54.956;73.412;2022-09-29T15:55:52;9.73;;;6.35;;
72201;SDS011;60105;54.956;73.412;2022-09-29T16:06:20;9.32;;;6.25;;
72201;SDS011;60105;54.956;73.412;2022-09-29T16:08:53;13.10;;;5.43;;
72201;SDS011;60105;54.956;73.412;2022-09-29T16:11:24;12.48;;;6.10;;
72201;SDS011;60105;54.956;73.412;2022-09-29T16:14:08;8.37;;;5.53;;
72201;SDS011;60105;54.956;73.412;2022-09-29T16:16:48;10.57;;;5.85;;
72201;SDS011;60105;54.956;73.412;2022-09-29T16:21:51;8.05;;;4.93;;
72201;SDS011;60105;54.956;73.412;2022-09-29T16:24:19;9.85;;;5.45;;
72201;SDS011;60105;54.956;73.412;2022-09-29T16:26:47;7.87;;;5.37;;
72201;SDS011;60105;54.956;73.412;2022-09-29T16:31:44;9.82;;;6.07;;
72201;SDS011;60105;54.956;73.412;2022-09-29T16:39:14;10.23;;;5.70;;
72201;SDS011;60105;54.956;73.412;2022-09-29T16:41:42;11.60;;;6.28;;
72201;SDS011;60105;54.956;73.412;2022-09-29T16:44:18;10.68;;;5.80;;
72201;SDS011;60105;54.956;73.412;2022-09-29T16:47:24;8.18;;;5.57;;
72201;SDS011;60105;54.956;73.412;2022-09-29T16:49:56;8.90;;;5.35;;
72201;SDS011;60105;54.956;73.412;2022-09-29T16:52:32;9.27;;;6.00;;
72201;SDS011;60105;54.956;73.412;2022-09-29T16:57:56;9.35;;;5.00;;
72201;SDS011;60105;54.956;73.412;2022-09-29T17:00:44;8.63;;;5.78;;
72201;SDS011;60105;54.956;73.412;2022-09-29T17:03:12;10.25;;;6.10;;
72201;SDS011;60105;54.956;73.412;2022-09-29T17:05:42;8.60;;;5.90;;
72201;SDS011;60105;54.956;73.412;2022-09-29T17:08:17;9.43;;;6.07;;
72201;SDS011;60105;54.956;73.412;2022-09-29T17:10:52;9.68;;;5.95;;
72201;SDS011;60105;54.956;73.412;2022-09-29T17:13:20;9.43;;;5.97;;
72201;SDS011;60105;54.956;73.412;2022-09-29T17:15:48;10.80;;;6.00;;
72201;SDS011;60105;54.956;73.412;2022-09-29T17:18:25;10.90;;;6.47;;
72201;SDS011;60105;54.956;73.412;2022-09-29T17:20:59;9.07;;;6.20;;
72201;SDS011;60105;54.956;73.412;2022-09-29T17:23:26;9.23;;;5.60;;
72201;SDS011;60105;54.956;73.412;2022-09-29T17:25:52;9.77;;;6.15;;
72201;SDS011;60105;54.956;73.412;2022-09-29T17:28:38;11.13;;;6.28;;
72201;SDS011;60105;54.956;73.412;2022-09-29T17:31:04;10.83;;;6.53;;
72201;SDS011;60105;54.956;73.412;2022-09-29T17:33:41;10.88;;;5.30;;
72201;SDS011;60105;54.956;73.412;2022-09-29T17:36:07;8.75;;;6.20;;
72201;SDS011;60105;54.956;73.412;2022-09-29T17:38:47;9.27;;;5.97;;
72201;SDS011;60105;54.956;73.412;2022-09-29T17:41:19;7.97;;;5.50;;
72201;SDS011;60105;54.956;73.412;2022-09-29T17:43:46;12.53;;;6.03;;
72201;SDS011;60105;54.956;73.412;2022-09-29T17:46:13;8.70;;;5.60;;
72201;SDS011;60105;54.956;73.412;2022-09-29T17:48:40;11.18;;;6.20;;
72201;SDS011;60105;54.956;73.412;2022-09-29T17:51:11;9.23;;;5.72;;
72201;SDS011;60105;54.956;73.412;2022-09-29T17:53:38;9.05;;;6.05;;
72201;SDS011;60105;54.956;73.412;2022-09-29T17:56:08;10.50;;;5.83;;
72201;SDS011;60105;54.956;73.412;2022-09-29T17:58:53;10.25;;;6.15;;
72201;SDS011;60105;54.956;73.412;2022-09-29T18:01:21;8.77;;;5.57;;
72201;SDS011;60105;54.956;73.412;2022-09-29T18:03:48;10.45;;;5.65;;
72201;SDS011;60105;54.956;73.412;2022-09-29T18:06:17;7.75;;;5.47;;
72201;SDS011;60105;54.956;73.412;2022-09-29T18:08:50;8.47;;;5.97;;
72201;SDS011;60105;54.956;73.412;2022-09-29T18:11:21;8.57;;;5.85;;
72201;SDS011;60105;54.956;73.412;2022-09-29T18:13:59;8.40;;;5.88;;
72201;SDS011;60105;54.956;73.412;2022-09-29T18:16:25;8.93;;;5.45;;
72201;SDS011;60105;54.956;73.412;2022-09-29T18:18:51;10.18;;;5.82;;
72201;SDS011;60105;54.956;73.412;2022-09-29T18:21:17;8.77;;;5.53;;
72201;SDS011;60105;54.956;73.412;2022-09-29T18:23:54;8.82;;;5.22;;
72201;SDS011;60105;54.956;73.412;2022-09-29T18:26:22;8.25;;;5.25;;
72201;SDS011;60105;54.956;73.412;2022-09-29T18:28:48;7.97;;;5.72;;
72201;SDS011;60105;54.956;73.412;2022-09-29T18:31:23;8.20;;;5.07;;
72201;SDS011;60105;54.956;73.412;2022-09-29T18:33:52;8.67;;;5.40;;
72201;SDS011;60105;54.956;73.412;2022-09-29T18:36:19;8.10;;;5.80;;